Tipton, Kansas
Current Conditions -  °F | °C
As of 5:53 PM on Thursday 18 Dec 2014 (Local Time) from KRSL Reporting Station
Overcast Overcast  
Wind Chill: 25°   Ceiling: 2200
Heat Index: 30°   Visibility: 8mi
Dew Point: 28°   Wind: 5mph
Humidity: 92%   Direction: 130°SE
Pressure: 30.15"   Gusts: NA
Location:  39.34°N, 98.47°W
Report Text: KRSL 182353Z AUTO 13004KT 8SM SCT014 OVC022 M01/M02 A3015 RMK AO2 SLP233 T10111022 10000 21017 53005
Loading
Personal Weather Stations






























Interactive Weather Map New forecast layout! Learn more

10-Day Weather Forecast

Advertisements
Track Severe Weather on mobile